Time;durP1;ratioP1;P1;durP2;ratioP2;P2;SDS_P1;SDS_P2;PMS_P1;PMS_P2;Temp;Humidity;BMP_temperature;BMP_pressure;BME280_temperature;BME280_humidity;BME280_pressure;Samples;Min_cycle;Max_cycle;Signal;HPM_P1;HPM_P2
2021/04/10 00:01:41;;;;;;;;;;;;;;;14.90;27.30;100554.81;4249617;33;33745;-92
2021/04/10 00:04:10;;;;;;;;;;;;;;;14.64;27.77;100552.19;4273422;33;33938;-93
2021/04/10 00:06:37;;;;;;;;;;;;;;;15.78;26.17;100551.50;4249898;33;33159;-94
2021/04/10 00:09:05;;;;;;;;;;;;;;;15.83;26.00;100554.81;4261973;33;33056;-94
2021/04/10 00:11:33;;;;;;;;;;;;;;;15.19;26.88;100556.34;4249707;33;32999;-93
2021/04/10 00:14:00;;;;;;;;;;;;;;;14.28;28.58;100549.00;4249434;33;33801;-93
2021/04/10 00:16:27;;;;;;;;;;;;;;;13.70;29.81;100556.06;4261513;33;34727;-92
2021/04/10 00:18:55;;;;;;;;;;;;;;;14.23;28.87;100557.03;4260843;33;31869;-93
2021/04/10 00:21:23;;;;;;;;;;;;;;;13.88;29.29;100550.31;4261115;33;33295;-93
2021/04/10 00:23:51;;;;;;;;;;;;;;;13.38;30.17;100558.84;4260921;33;33155;-92
2021/04/10 00:26:20;;;;;;;;;;;;;;;14.31;28.53;100555.03;4249433;33;33960;-93
2021/04/10 00:28:46;;;;;;;;;;;;;;;14.33;28.50;100545.34;4261626;33;33336;-92
2021/04/10 00:31:14;;;;;;;;;;;;;;;13.63;29.17;100544.09;4249626;33;32616;-92
2021/04/10 00:33:43;;;;;;;;;;;;;;;13.35;30.19;100544.88;4261398;33;33254;-92
2021/04/10 00:36:10;;;;;;;;;;;;;;;14.22;28.69;100542.22;4261505;33;33852;-93
2021/04/10 00:38:37;;;;;;;;;;;;;;;14.44;28.51;100541.47;4261062;33;33416;-92
2021/04/10 00:41:06;;;;;;;;;;;;;;;15.30;27.14;100538.44;4261109;33;34727;-93
2021/04/10 00:43:33;;;;;;;;;;;;;;;14.96;27.54;100538.84;4261367;33;32596;-92
2021/04/10 00:46:00;;;;;;;;;;;;;;;15.27;27.00;100545.56;4249498;33;33728;-92
2021/04/10 00:48:27;;;;;;;;;;;;;;;13.84;29.25;100541.69;4249573;33;32034;-93
2021/04/10 00:50:56;;;;;;;;;;;;;;;15.14;27.34;100543.41;4272699;33;32648;-93
2021/04/10 00:53:25;;;;;;;;;;;;;;;15.38;26.93;100545.16;4272670;33;33463;-93
2021/04/10 00:55:53;;;;;;;;;;;;;;;15.15;27.31;100541.63;4261306;33;33860;-93
2021/04/10 00:58:40;;;;;;;;;;;;;;;15.13;27.35;100541.69;4251832;33;32682;-93
2021/04/10 01:01:08;;;;;;;;;;;;;;;15.07;27.66;100535.81;4249489;33;33581;-91
2021/04/10 01:03:37;;;;;;;;;;;;;;;14.98;27.70;100532.63;4249529;33;33431;-92
2021/04/10 01:06:05;;;;;;;;;;;;;;;14.97;27.68;100533.53;4260977;33;32848;-92
2021/04/10 01:08:32;;;;;;;;;;;;;;;15.02;27.62;100533.34;4260908;33;33054;-92
2021/04/10 01:11:08;;;;;;;;;;;;;;;15.51;26.88;100526.25;4249320;33;32806;-93
2021/04/10 01:13:40;;;;;;;;;;;;;;;15.22;27.25;100527.34;4238123;33;32798;-92
2021/04/10 01:16:08;;;;;;;;;;;;;;;15.63;27.04;100524.06;4266055;33;34010;-91
2021/04/10 01:18:47;;;;;;;;;;;;;;;15.24;27.71;100522.91;4254518;33;32798;-92
2021/04/10 01:21:14;;;;;;;;;;;;;;;15.77;26.79;100520.88;4242768;33;34098;-92
2021/04/10 01:23:45;;;;;;;;;;;;;;;15.29;27.45;100520.09;4240764;33;33028;-93
2021/04/10 01:26:16;;;;;;;;;;;;;;;14.90;28.16;100529.41;4249293;33;33802;-92
2021/04/10 01:28:50;;;;;;;;;;;;;;;15.00;28.19;100520.28;4249321;33;32230;-93
2021/04/10 01:31:19;;;;;;;;;;;;;;;14.78;28.52;100520.22;4261122;33;33990;-92
2021/04/10 01:33:47;;;;;;;;;;;;;;;14.73;28.64;100509.06;4248997;33;33019;-92
2021/04/10 01:36:14;;;;;;;;;;;;;;;15.02;28.09;100509.72;4249170;33;32749;-91
2021/04/10 01:38:43;;;;;;;;;;;;;;;14.97;28.33;100515.16;4237565;33;32438;-93
2021/04/10 01:41:12;;;;;;;;;;;;;;;14.65;28.78;100504.06;4248113;33;34310;-92
2021/04/10 01:43:40;;;;;;;;;;;;;;;14.49;28.99;100510.72;4248866;33;33202;-92
2021/04/10 01:46:07;;;;;;;;;;;;;;;14.77;28.48;100508.03;4248913;33;33155;-91
2021/04/10 01:48:37;;;;;;;;;;;;;;;14.15;29.31;100509.28;4256641;33;32234;-92
2021/04/10 01:51:05;;;;;;;;;;;;;;;14.60;28.78;100505.09;4271240;33;35300;-92
2021/04/10 01:53:32;;;;;;;;;;;;;;;14.29;29.14;100506.16;4268531;33;33143;-93
2021/04/10 01:56:01;;;;;;;;;;;;;;;13.68;30.10;100509.91;4268214;33;33820;-93
2021/04/10 01:58:30;;;;;;;;;;;;;;;14.34;29.10;100505.09;4245461;33;31822;-93
2021/04/10 02:01:00;;;;;;;;;;;;;;;14.67;28.37;100507.47;4265350;33;32763;-92
2021/04/10 02:03:28;;;;;;;;;;;;;;;13.75;29.96;100511.44;4262096;33;34181;-93
2021/04/10 02:05:56;;;;;;;;;;;;;;;14.35;28.98;100514.69;4249672;33;32735;-92
2021/04/10 02:08:25;;;;;;;;;;;;;;;14.79;28.13;100510.59;4261084;33;32197;-92
2021/04/10 02:10:54;;;;;;;;;;;;;;;14.13;29.15;100509.34;4249035;33;32961;-91
2021/04/10 02:13:23;;;;;;;;;;;;;;;14.02;29.30;100503.56;4248921;33;33093;-93
2021/04/10 02:15:50;;;;;;;;;;;;;;;13.81;29.92;100507.75;4272123;33;32968;-93
2021/04/10 02:18:19;;;;;;;;;;;;;;;14.19;29.57;100510.88;4248963;33;32078;-93
2021/04/10 02:20:47;;;;;;;;;;;;;;;14.22;29.42;100510.78;4236753;33;34088;-92
2021/04/10 02:23:15;;;;;;;;;;;;;;;12.34;32.29;100506.72;4248349;33;32846;-92
2021/04/10 02:25:43;;;;;;;;;;;;;;;10.71;35.44;100501.66;4237270;33;32649;-92
2021/04/10 02:28:11;;;;;;;;;;;;;;;12.09;32.86;100511.72;4248292;33;31991;-93
2021/04/10 02:30:39;;;;;;;;;;;;;;;11.35;34.60;100509.91;4272109;33;33215;-92
2021/04/10 02:33:25;;;;;;;;;;;;;;;11.53;34.03;100510.38;4248401;33;34110;-92
2021/04/10 02:35:55;;;;;;;;;;;;;;;11.96;33.22;100512.00;4260313;33;33767;-92
2021/04/10 02:38:24;;;;;;;;;;;;;;;10.30;36.26;100519.75;4236416;33;32548;-92
2021/04/10 02:40:58;;;;;;;;;;;;;;;9.82;37.27;100514.44;4236926;33;33843;-92
2021/04/10 02:43:26;;;;;;;;;;;;;;;10.84;35.44;100512.69;4248443;33;33984;-92
2021/04/10 02:45:57;;;;;;;;;;;;;;;10.18;36.80;100499.09;4260341;33;33717;-92
2021/04/10 02:48:27;;;;;;;;;;;;;;;10.01;37.19;100501.97;4259975;33;32237;-91
2021/04/10 02:50:56;;;;;;;;;;;;;;;9.00;39.34;100513.81;4248122;33;32837;-91
2021/04/10 02:53:24;;;;;;;;;;;;;;;9.96;37.29;100509.88;4236577;33;32972;-91
2021/04/10 02:55:53;;;;;;;;;;;;;;;11.01;35.06;100508.00;4271753;33;34401;-91
2021/04/10 02:58:21;;;;;;;;;;;;;;;11.74;33.66;100503.81;4248607;33;32322;-92
2021/04/10 03:00:52;;;;;;;;;;;;;;;10.96;35.17;100502.00;4260161;33;32926;-92
2021/04/10 03:03:20;;;;;;;;;;;;;;;11.30;34.61;100505.66;4248594;33;33118;-91
2021/04/10 03:05:48;;;;;;;;;;;;;;;12.01;33.34;100497.09;4236793;33;33851;-92
2021/04/10 03:08:19;;;;;;;;;;;;;;;10.93;35.34;100506.41;4266754;33;32099;-92
2021/04/10 03:10:47;;;;;;;;;;;;;;;11.33;34.77;100508.22;4248177;33;32658;-91
2021/04/10 03:13:14;;;;;;;;;;;;;;;11.09;34.74;100509.56;4260079;33;32957;-91
2021/04/10 03:15:41;;;;;;;;;;;;;;;11.65;33.46;100504.03;4237040;33;32939;-91
2021/04/10 03:18:10;;;;;;;;;;;;;;;10.17;36.26;100492.16;4247865;33;32107;-92
2021/04/10 03:20:39;;;;;;;;;;;;;;;8.77;39.35;100502.81;4236770;33;32963;-91
2021/04/10 03:23:07;;;;;;;;;;;;;;;9.00;39.24;100502.53;4236246;33;32961;-91
2021/04/10 03:25:35;;;;;;;;;;;;;;;9.20;38.94;100494.53;4248421;33;32744;-91
2021/04/10 03:28:07;;;;;;;;;;;;;;;10.20;36.55;100490.38;4259929;33;32783;-92
2021/04/10 03:30:34;;;;;;;;;;;;;;;10.33;36.28;100497.97;4248140;33;33269;-91
2021/04/10 03:33:02;;;;;;;;;;;;;;;10.99;34.99;100501.09;4261641;33;33053;-91
2021/04/10 03:35:30;;;;;;;;;;;;;;;11.13;34.33;100506.03;4253064;33;32984;-90
2021/04/10 03:37:59;;;;;;;;;;;;;;;11.28;34.31;100503.09;4261216;33;33080;-92
2021/04/10 03:40:28;;;;;;;;;;;;;;;11.48;34.04;100505.25;4238733;33;33261;-92
2021/04/10 03:42:58;;;;;;;;;;;;;;;11.57;33.80;100511.16;4242671;33;32811;-91
2021/04/10 03:45:26;;;;;;;;;;;;;;;12.09;32.28;100504.72;4236672;33;31030;-92
2021/04/10 03:47:55;;;;;;;;;;;;;;;11.45;33.49;100510.56;4248154;33;32221;-92
2021/04/10 03:50:23;;;;;;;;;;;;;;;11.59;33.59;100517.22;4260013;33;32534;-91
2021/04/10 03:52:52;;;;;;;;;;;;;;;12.28;32.43;100510.34;4259978;33;34465;-92
2021/04/10 03:55:20;;;;;;;;;;;;;;;11.94;32.79;100511.16;4247694;33;32492;-92
2021/04/10 03:57:49;;;;;;;;;;;;;;;11.69;33.21;100514.34;4271037;33;32085;-91
2021/04/10 04:00:18;;;;;;;;;;;;;;;12.31;32.57;100514.63;4235999;33;32833;-92
2021/04/10 04:02:49;;;;;;;;;;;;;;;12.29;32.67;100517.28;4247315;33;32832;-92
2021/04/10 04:05:16;;;;;;;;;;;;;;;10.64;35.37;100524.34;4271159;33;32820;-91
2021/04/10 04:07:43;;;;;;;;;;;;;;;11.78;33.32;100528.06;4247704;33;31776;-91
2021/04/10 04:10:11;;;;;;;;;;;;;;;12.53;32.26;100522.78;4247309;33;33319;-92
2021/04/10 04:12:39;;;;;;;;;;;;;;;12.03;32.61;100526.66;4259713;33;34251;-91
2021/04/10 04:15:06;;;;;;;;;;;;;;;10.58;35.39;100523.62;4259724;33;34311;-91
2021/04/10 04:17:34;;;;;;;;;;;;;;;9.14;38.37;100525.78;4247724;33;33256;-92
2021/04/10 04:20:01;;;;;;;;;;;;;;;9.61;37.86;100520.81;4256835;33;32479;-91
2021/04/10 04:22:28;;;;;;;;;;;;;;;8.94;39.02;100526.03;4259099;33;32943;-92
2021/04/10 04:24:57;;;;;;;;;;;;;;;8.81;39.66;100528.75;4248002;33;34099;-91
2021/04/10 04:27:24;;;;;;;;;;;;;;;8.36;40.91;100525.72;4247087;33;32008;-92
2021/04/10 04:29:53;;;;;;;;;;;;;;;7.95;41.65;100525.19;4259226;33;32518;-91
2021/04/10 04:32:21;;;;;;;;;;;;;;;8.57;40.50;100524.69;4247084;33;34003;-91
2021/04/10 04:34:50;;;;;;;;;;;;;;;8.31;40.89;100528.37;4246786;33;33126;-92
2021/04/10 04:37:17;;;;;;;;;;;;;;;10.16;36.87;100519.97;4270555;33;32401;-92
2021/04/10 04:39:45;;;;;;;;;;;;;;;9.21;39.00;100527.41;4258998;33;33060;-92
2021/04/10 04:42:12;;;;;;;;;;;;;;;10.70;35.95;100523.38;4246783;33;33130;-91
2021/04/10 04:44:39;;;;;;;;;;;;;;;9.98;37.38;100528.06;4259546;33;32909;-92
2021/04/10 04:47:06;;;;;;;;;;;;;;;9.76;37.97;100527.53;4260770;33;33125;-91
2021/04/10 04:49:34;;;;;;;;;;;;;;;9.36;38.79;100522.03;4272523;33;33595;-91
2021/04/10 04:52:01;;;;;;;;;;;;;;;9.48;38.82;100521.00;4260990;33;33286;-92
2021/04/10 04:54:29;;;;;;;;;;;;;;;9.97;38.05;100535.03;4272736;33;33142;-91
2021/04/10 04:56:56;;;;;;;;;;;;;;;11.16;35.35;100535.50;4249101;33;32014;-92
2021/04/10 04:59:27;;;;;;;;;;;;;;;11.57;34.46;100537.25;4260575;33;33036;-91
2021/04/10 05:01:54;;;;;;;;;;;;;;;11.22;35.22;100531.94;4248801;33;33983;-92
2021/04/10 05:04:21;;;;;;;;;;;;;;;10.06;37.79;100539.22;4236988;33;33029;-92
2021/04/10 05:06:48;;;;;;;;;;;;;;;11.03;36.08;100532.31;4272589;33;31869;-92
2021/04/10 05:09:16;;;;;;;;;;;;;;;10.08;38.39;100533.97;4239402;33;33034;-92
2021/04/10 05:11:43;;;;;;;;;;;;;;;11.11;36.49;100539.09;4266560;33;34357;-91
2021/04/10 05:14:10;;;;;;;;;;;;;;;11.28;36.35;100544.81;4255167;33;33701;-92
2021/04/10 05:16:39;;;;;;;;;;;;;;;12.17;34.64;100548.94;4270615;33;33229;-91
2021/04/10 05:19:06;;;;;;;;;;;;;;;11.85;35.18;100564.44;4251320;33;32789;-91
2021/04/10 05:21:33;;;;;;;;;;;;;;;12.26;34.43;100556.56;4249353;33;34086;-92
2021/04/10 05:24:00;;;;;;;;;;;;;;;13.41;32.31;100556.97;4237467;33;33942;-91
2021/04/10 05:26:28;;;;;;;;;;;;;;;13.57;31.82;100564.38;4272242;33;32449;-91
2021/04/10 05:28:55;;;;;;;;;;;;;;;13.65;31.60;100560.62;4272181;33;33549;-91
2021/04/10 05:31:22;;;;;;;;;;;;;;;13.87;31.20;100559.94;4260178;33;34945;-91
2021/04/10 05:33:50;;;;;;;;;;;;;;;13.75;31.46;100562.94;4236464;33;32971;-92
2021/04/10 05:36:17;;;;;;;;;;;;;;;13.40;31.92;100562.25;4248723;33;32935;-93
2021/04/10 05:38:45;;;;;;;;;;;;;;;14.21;30.48;100558.84;4248851;33;33004;-93
2021/04/10 05:41:12;;;;;;;;;;;;;;;14.03;30.60;100547.22;4260392;33;34237;-92
2021/04/10 05:43:39;;;;;;;;;;;;;;;13.38;31.84;100548.38;4260829;33;34453;-93
2021/04/10 05:46:06;;;;;;;;;;;;;;;14.17;30.68;100552.00;4260539;33;31937;-92
2021/04/10 05:48:33;;;;;;;;;;;;;;;13.78;31.21;100545.37;4248501;33;32825;-91
2021/04/10 05:51:01;;;;;;;;;;;;;;;14.64;29.97;100544.31;4263249;33;34010;-92
2021/04/10 05:53:28;;;;;;;;;;;;;;;14.40;30.69;100550.38;4253686;33;33613;-92
2021/04/10 05:55:55;;;;;;;;;;;;;;;14.77;29.79;100538.63;4265013;33;33398;-92
2021/04/10 05:58:22;;;;;;;;;;;;;;;15.46;28.64;100548.34;4265520;33;32791;-92
2021/04/10 06:00:51;;;;;;;;;;;;;;;15.63;28.29;100543.28;4261921;33;33141;-91
2021/04/10 06:03:20;;;;;;;;;;;;;;;15.89;27.88;100537.94;4249370;33;33680;-92
2021/04/10 06:05:49;;;;;;;;;;;;;;;15.70;28.12;100542.16;4261553;33;33275;-92
2021/04/10 06:08:16;;;;;;;;;;;;;;;15.72;28.18;100539.47;4237124;33;33038;-92
2021/04/10 06:10:43;;;;;;;;;;;;;;;16.15;27.43;100542.16;4260759;33;33828;-92
2021/04/10 06:13:11;;;;;;;;;;;;;;;16.32;27.18;100541.44;4260272;33;33153;-92
2021/04/10 06:15:38;;;;;;;;;;;;;;;16.01;27.68;100546.19;4260586;33;32283;-92
2021/04/10 06:18:06;;;;;;;;;;;;;;;15.62;28.20;100548.63;4260300;33;34386;-91
2021/04/10 06:20:33;;;;;;;;;;;;;;;16.03;27.50;100552.25;4248636;33;32798;-92
2021/04/10 06:23:00;;;;;;;;;;;;;;;16.69;26.57;100553.03;4260481;33;32542;-90
2021/04/10 06:25:28;;;;;;;;;;;;;;;16.83;26.31;100560.31;4260676;33;33288;-93
2021/04/10 06:27:55;;;;;;;;;;;;;;;16.83;26.34;100553.28;4237363;33;32983;-92
2021/04/10 06:30:22;;;;;;;;;;;;;;;15.81;27.87;100556.69;4272141;33;32934;-93
2021/04/10 06:32:49;;;;;;;;;;;;;;;15.50;28.44;100547.31;4248939;33;33901;-92
2021/04/10 06:35:17;;;;;;;;;;;;;;;15.01;29.34;100543.00;4248470;33;31732;-92
2021/04/10 06:37:45;;;;;;;;;;;;;;;16.36;27.51;100549.13;4237029;33;33352;-93
2021/04/10 06:40:13;;;;;;;;;;;;;;;15.78;28.34;100544.47;4260284;33;32669;-93
2021/04/10 06:42:40;;;;;;;;;;;;;;;14.87;29.75;100542.66;4248658;33;32928;-92
2021/04/10 06:45:07;;;;;;;;;;;;;;;15.20;29.27;100540.53;4248583;33;33044;-92
2021/04/10 06:47:35;;;;;;;;;;;;;;;15.49;28.95;100543.84;4248371;33;33214;-93
2021/04/10 06:50:04;;;;;;;;;;;;;;;15.55;28.91;100540.12;4260371;33;33101;-94
2021/04/10 06:52:31;;;;;;;;;;;;;;;15.74;28.53;100547.28;4252895;33;33234;-93
2021/04/10 06:55:03;;;;;;;;;;;;;;;15.95;28.19;100543.81;4246531;33;32104;-93
2021/04/10 06:57:33;;;;;;;;;;;;;;;16.29;27.90;100547.69;4257213;33;33007;-93
2021/04/10 07:00:02;;;;;;;;;;;;;;;16.78;27.29;100542.09;4252611;33;32995;-93
2021/04/10 07:02:30;;;;;;;;;;;;;;;16.61;27.54;100534.94;4261115;33;34385;-93
2021/04/10 07:04:57;;;;;;;;;;;;;;;16.41;27.82;100537.59;4248930;33;33061;-92
2021/04/10 07:07:26;;;;;;;;;;;;;;;15.22;29.75;100544.88;4271855;33;33013;-92
2021/04/10 07:09:53;;;;;;;;;;;;;;;15.81;29.02;100543.53;4248699;33;33126;-93
2021/04/10 07:12:20;;;;;;;;;;;;;;;16.66;27.73;100543.50;4248503;33;33261;-93
2021/04/10 07:14:48;;;;;;;;;;;;;;;16.26;28.54;100545.19;4236710;33;31839;-93
2021/04/10 07:17:15;;;;;;;;;;;;;;;15.81;29.12;100543.53;4272163;33;33461;-93
2021/04/10 07:19:42;;;;;;;;;;;;;;;16.00;29.09;100546.28;4261048;33;34847;-93
2021/04/10 07:22:12;;;;;;;;;;;;;;;15.95;29.27;100543.81;4248424;33;33476;-94
2021/04/10 07:24:44;;;;;;;;;;;;;;;16.27;28.73;100540.78;4248246;33;31995;-93
2021/04/10 07:27:14;;;;;;;;;;;;;;;16.81;27.98;100541.13;4248745;33;33964;-93
2021/04/10 07:29:51;;;;;;;;;;;;;;;16.67;28.08;100549.59;4248305;33;33310;-93
2021/04/10 07:32:23;;;;;;;;;;;;;;;17.85;26.38;100542.50;4260208;33;32933;-93
2021/04/10 07:34:52;;;;;;;;;;;;;;;17.60;26.93;100538.37;4248249;33;32033;-94
2021/04/10 07:37:31;;;;;;;;;;;;;;;15.87;30.03;100545.91;4248904;33;33085;-95
2021/04/10 07:39:59;;;;;;;;;;;;;;;16.86;28.80;100542.63;4260975;33;33975;-93
2021/04/10 07:42:28;;;;;;;;;;;;;;;17.88;27.00;100547.59;4248828;33;33229;-93
2021/04/10 07:44:56;;;;;;;;;;;;;;;17.33;27.71;100551.94;4260579;33;33152;-96
2021/04/10 07:47:34;;;;;;;;;;;;;;;17.86;27.05;100539.78;4249337;33;33724;-94
2021/04/10 07:50:34;;;;;;;;;;;;;;;17.97;27.03;100544.56;4261068;33;33154;-95
2021/04/10 07:53:21;;;;;;;;;;;;;;;18.07;26.86;100541.47;4237339;33;33182;-94
2021/04/10 07:55:49;;;;;;;;;;;;;;;17.07;28.37;100547.00;4261414;33;34282;-94
2021/04/10 07:58:32;;;;;;;;;;;;;;;17.81;27.39;100540.94;4260212;33;32873;-92
2021/04/10 08:01:04;;;;;;;;;;;;;;;17.57;27.52;100548.25;4248874;33;33041;-93
2021/04/10 08:03:33;;;;;;;;;;;;;;;17.12;28.52;100539.75;4261179;33;32669;-93
2021/04/10 08:06:06;;;;;;;;;;;;;;;17.50;28.01;100545.03;4260507;33;33214;-94
2021/04/10 08:08:34;;;;;;;;;;;;;;;18.02;27.32;100541.72;4266328;33;33062;-93
2021/04/10 08:11:04;;;;;;;;;;;;;;;17.15;28.62;100548.38;4267161;33;33102;-92
2021/04/10 08:13:31;;;;;;;;;;;;;;;17.69;28.08;100545.03;4243736;33;33405;-92
2021/04/10 08:16:10;;;;;;;;;;;;;;;17.07;29.07;100547.00;4254883;33;32099;-93
2021/04/10 08:18:54;;;;;;;;;;;;;;;17.09;29.20;100558.34;4261114;33;32854;-92
2021/04/10 08:21:28;;;;;;;;;;;;;;;17.68;28.22;100543.31;4250304;33;32996;-94
2021/04/10 08:23:56;;;;;;;;;;;;;;;18.28;27.35;100550.97;4261849;33;34174;-93
2021/04/10 08:26:24;;;;;;;;;;;;;;;17.06;29.54;100558.47;4261934;33;32163;-92
2021/04/10 08:28:51;;;;;;;;;;;;;;;16.50;30.55;100559.09;4273965;33;33123;-93
2021/04/10 08:31:19;;;;;;;;;;;;;;;17.34;29.12;100550.19;4261605;33;33837;-93
2021/04/10 08:33:47;;;;;;;;;;;;;;;17.65;28.64;100560.13;4250029;33;34755;-93
2021/04/10 08:36:14;;;;;;;;;;;;;;;18.11;28.11;100554.44;4261708;33;32942;-93
2021/04/10 08:38:42;;;;;;;;;;;;;;;17.25;29.17;100569.03;4250015;33;34292;-93
2021/04/10 08:41:10;;;;;;;;;;;;;;;18.59;27.28;100562.59;4261950;33;34097;-93
2021/04/10 08:43:38;;;;;;;;;;;;;;;18.95;26.69;100563.44;4250108;33;34384;-94
2021/04/10 08:46:06;;;;;;;;;;;;;;;19.36;26.21;100560.34;4265863;33;33065;-93
2021/04/10 08:48:35;;;;;;;;;;;;;;;17.96;28.12;100560.47;4254780;33;33003;-94
2021/04/10 08:51:04;;;;;;;;;;;;;;;18.01;28.04;100558.44;4255455;33;34534;-94
2021/04/10 08:53:34;;;;;;;;;;;;;;;17.05;29.82;100560.25;4256439;33;33798;-92
2021/04/10 08:56:06;;;;;;;;;;;;;;;15.92;31.63;100564.97;4251318;33;33096;-92
2021/04/10 08:58:35;;;;;;;;;;;;;;;17.22;29.62;100558.63;4250797;33;32929;-93
2021/04/10 09:01:06;;;;;;;;;;;;;;;17.88;28.72;100555.53;4239024;33;33225;-93
2021/04/10 09:03:47;;;;;;;;;;;;;;;18.49;27.50;100551.66;4262987;33;34296;-95
2021/04/10 09:06:15;;;;;;;;;;;;;;;18.78;27.31;100551.94;4250268;33;32112;-95
2021/04/10 09:08:42;;;;;;;;;;;;;;;18.92;26.83;100551.25;4262026;33;33004;-94
2021/04/10 09:11:18;;;;;;;;;;;;;;;18.79;26.91;100542.25;4249852;33;33781;-93
2021/04/10 09:13:46;;;;;;;;;;;;;;;19.08;26.62;100543.34;4261899;33;32881;-94
2021/04/10 09:16:22;;;;;;;;;;;;;;;19.10;26.51;100545.91;4250156;33;32379;-93
2021/04/10 09:19:12;;;;;;;;;;;;;;;18.61;27.24;100552.78;4238029;33;32751;-93
2021/04/10 09:21:49;;;;;;;;;;;;;;;18.83;27.01;100543.78;4249599;33;33042;-93
2021/04/10 09:24:24;;;;;;;;;;;;;;;17.94;28.25;100542.09;4241860;33;33212;-94
2021/04/10 09:27:04;;;;;;;;;;;;;;;19.17;26.59;100544.63;4257155;33;32280;-93
2021/04/10 09:29:41;;;;;;;;;;;;;;;18.47;27.55;100547.41;4269976;33;32767;-92
2021/04/10 09:32:11;;;;;;;;;;;;;;;18.92;27.10;100551.25;4264534;33;34153;-94
2021/04/10 09:34:45;;;;;;;;;;;;;;;17.94;28.41;100557.91;4249842;33;33030;-94
2021/04/10 09:37:20;;;;;;;;;;;;;;;18.56;27.55;100546.06;4250019;33;32390;-92
2021/04/10 09:39:56;;;;;;;;;;;;;;;18.45;28.00;100550.09;4249476;33;32987;-94
2021/04/10 09:42:44;;;;;;;;;;;;;;;18.41;27.78;100543.25;4249785;33;33047;-94
2021/04/10 09:45:34;;;;;;;;;;;;;;;20.14;25.29;100539.25;4261547;33;33799;-94
2021/04/10 09:48:04;;;;;;;;;;;;;;;19.93;25.35;100551.94;4261192;33;32996;-93
2021/04/10 09:50:34;;;;;;;;;;;;;;;19.44;26.20;100544.06;4261487;33;33771;-94
2021/04/10 09:53:03;;;;;;;;;;;;;;;18.71;27.25;100545.28;4262972;33;34050;-93
2021/04/10 09:55:31;;;;;;;;;;;;;;;18.81;27.12;100538.59;4261507;33;33172;-94
2021/04/10 09:57:59;;;;;;;;;;;;;;;19.75;25.67;100531.78;4249985;33;32111;-94
2021/04/10 10:00:26;;;;;;;;;;;;;;;20.57;24.81;100532.34;4249690;33;32659;-94
2021/04/10 10:02:54;;;;;;;;;;;;;;;19.62;25.67;100539.56;4249909;33;33404;-93
2021/04/10 10:05:22;;;;;;;;;;;;;;;19.34;26.25;100535.78;4250010;33;32933;-94
2021/04/10 10:07:50;;;;;;;;;;;;;;;20.14;25.08;100530.44;4261803;33;32830;-94
2021/04/10 10:10:18;;;;;;;;;;;;;;;19.08;26.67;100537.22;4238176;33;33052;-94
2021/04/10 10:12:45;;;;;;;;;;;;;;;20.83;24.02;100515.78;4273503;33;33561;-94
2021/04/10 10:15:22;;;;;;;;;;;;;;;19.92;25.36;100531.69;4249815;33;33055;-93
2021/04/10 10:17:50;;;;;;;;;;;;;;;19.45;25.76;100532.56;4238137;33;33542;-94
2021/04/10 10:20:17;;;;;;;;;;;;;;;20.86;23.77;100525.31;4261985;33;34058;-94
2021/04/10 10:22:44;;;;;;;;;;;;;;;19.95;25.16;100514.81;4239943;33;32997;-94
2021/04/10 10:25:12;;;;;;;;;;;;;;;19.27;26.16;100521.22;4266781;33;33216;-93
2021/04/10 10:27:42;;;;;;;;;;;;;;;19.19;26.43;100516.38;4256915;33;32475;-93
2021/04/10 10:30:16;;;;;;;;;;;;;;;20.31;24.62;100511.78;4268384;33;33781;-94
2021/04/10 10:32:45;;;;;;;;;;;;;;;20.62;24.51;100511.72;4257225;33;32975;-93
2021/04/10 10:35:12;;;;;;;;;;;;;;;18.48;27.24;100520.06;4251857;33;33880;-93
2021/04/10 10:37:40;;;;;;;;;;;;;;;20.18;24.77;100521.38;4250484;33;33155;-95
2021/04/10 10:40:08;;;;;;;;;;;;;;;19.02;26.23;100512.00;4250554;33;33586;-94
2021/04/10 10:42:35;;;;;;;;;;;;;;;20.41;24.40;100512.09;4249606;33;33283;-93
2021/04/10 10:45:03;;;;;;;;;;;;;;;20.79;23.64;100514.22;4249601;33;32888;-93
2021/04/10 10:47:31;;;;;;;;;;;;;;;20.66;23.85;100507.94;4249544;33;32244;-94
2021/04/10 10:49:58;;;;;;;;;;;;;;;20.29;24.33;100513.69;4249718;33;32711;-95
2021/04/10 10:52:25;;;;;;;;;;;;;;;19.48;25.74;100512.09;4273582;33;33052;-94
2021/04/10 10:54:58;;;;;;;;;;;;;;;20.64;24.26;100509.84;4275095;33;32881;-95
2021/04/10 10:57:26;;;;;;;;;;;;;;;21.47;23.07;100499.41;4255550;33;32137;-94
2021/04/10 11:00:06;;;;;;;;;;;;;;;22.27;21.99;100492.41;4255088;33;32908;-94
2021/04/10 11:02:34;;;;;;;;;;;;;;;22.67;21.48;100498.53;4267972;33;34136;-94
2021/04/10 11:05:03;;;;;;;;;;;;;;;23.32;20.59;100493.09;4271392;33;32789;-94
2021/04/10 11:07:31;;;;;;;;;;;;;;;22.46;21.66;100492.06;4234350;33;995107;-94
2021/04/10 11:09:58;;;;;;;;;;;;;;;21.26;22.94;100493.69;4277674;33;32994;-93
2021/04/10 11:12:27;;;;;;;;;;;;;;;21.08;23.28;100500.97;4276079;33;32914;-93
2021/04/10 11:14:56;;;;;;;;;;;;;;;21.87;22.18;100492.44;4262013;33;33319;-93
2021/04/10 11:17:27;;;;;;;;;;;;;;;22.72;20.84;100484.06;4237679;33;32121;-94
2021/04/10 11:19:58;;;;;;;;;;;;;;;23.24;20.50;100488.37;4249475;33;33024;-93
2021/04/10 11:22:26;;;;;;;;;;;;;;;23.82;19.89;100471.72;4261262;33;34869;-95
2021/04/10 11:24:54;;;;;;;;;;;;;;;23.97;19.88;100489.25;4261489;33;33142;-94
2021/04/10 11:27:25;;;;;;;;;;;;;;;24.21;19.72;100477.69;4249351;33;31947;-94
2021/04/10 11:29:52;;;;;;;;;;;;;;;24.00;19.87;100481.00;4261109;33;34057;-94
2021/04/10 11:32:19;;;;;;;;;;;;;;;21.33;22.71;100484.37;4260922;33;33190;-94
2021/04/10 11:34:46;;;;;;;;;;;;;;;21.61;22.52;100484.44;4249453;33;34100;-94
2021/04/10 11:37:19;;;;;;;;;;;;;;;22.14;21.30;100473.84;4248885;33;32068;-94
2021/04/10 11:39:51;;;;;;;;;;;;;;;23.28;19.87;100479.22;4260846;33;33285;-93
2021/04/10 11:42:28;;;;;;;;;;;;;;;22.87;20.02;100469.72;4260699;33;33982;-94
2021/04/10 11:44:58;;;;;;;;;;;;;;;23.01;20.50;100466.94;4237728;33;33059;-94
2021/04/10 11:47:27;;;;;;;;;;;;;;;22.98;20.52;100471.59;4261215;33;32839;-93
2021/04/10 11:50:13;;;;;;;;;;;;;;;22.40;20.89;100465.91;4274456;33;32646;-94
2021/04/10 11:52:41;;;;;;;;;;;;;;;22.91;20.62;100460.56;4261769;33;34546;-94
2021/04/10 11:55:09;;;;;;;;;;;;;;;23.14;20.01;100466.06;4262862;33;33659;-94
2021/04/10 11:57:37;;;;;;;;;;;;;;;22.27;21.43;100452.59;4250986;33;32386;-94
2021/04/10 12:00:10;;;;;;;;;;;;;;;21.26;22.13;100453.06;4273496;33;33010;-94
2021/04/10 12:02:43;;;;;;;;;;;;;;;23.31;19.97;100443.56;4262148;33;33025;-94
2021/04/10 12:05:29;;;;;;;;;;;;;;;23.52;19.59;100451.78;4262234;33;34203;-94
2021/04/10 12:08:03;;;;;;;;;;;;;;;22.74;20.03;100442.31;4250978;33;32146;-94
2021/04/10 12:10:30;;;;;;;;;;;;;;;24.72;17.97;100439.12;4250513;33;32555;-94
2021/04/10 12:12:57;;;;;;;;;;;;;;;23.11;19.88;100450.31;4262753;33;34178;-94
2021/04/10 12:15:28;;;;;;;;;;;;;;;22.94;20.49;100432.94;4262155;33;34153;-95
2021/04/10 12:17:55;;;;;;;;;;;;;;;23.15;19.81;100431.41;4250945;33;34107;-95
2021/04/10 12:20:23;;;;;;;;;;;;;;;24.08;18.80;100421.00;4262252;33;34572;-95
2021/04/10 12:22:50;;;;;;;;;;;;;;;24.43;18.58;100414.78;4262434;33;33973;-94
2021/04/10 12:25:18;;;;;;;;;;;;;;;23.54;19.34;100428.56;4262033;33;33055;-95
2021/04/10 12:27:45;;;;;;;;;;;;;;;23.73;19.35;100422.69;4250818;33;34051;-94
2021/04/10 12:30:13;;;;;;;;;;;;;;;23.62;19.60;100418.19;4273818;33;32949;-95
2021/04/10 12:32:41;;;;;;;;;;;;;;;24.00;19.17;100406.50;4261733;33;33136;-94
2021/04/10 12:35:09;;;;;;;;;;;;;;;24.16;18.91;100410.66;4261572;33;33478;-94
2021/04/10 12:37:36;;;;;;;;;;;;;;;22.45;20.38;100411.53;4261775;33;32515;-95
2021/04/10 12:40:05;;;;;;;;;;;;;;;22.58;20.59;100405.38;4279301;33;33354;-94
2021/04/10 12:42:33;;;;;;;;;;;;;;;22.65;20.58;100407.47;4267143;33;32973;-94
2021/04/10 12:45:06;;;;;;;;;;;;;;;22.97;20.10;100393.69;4266334;33;32776;-93
2021/04/10 12:47:34;;;;;;;;;;;;;;;22.63;20.25;100393.47;4267813;33;32255;-94
2021/04/10 12:50:01;;;;;;;;;;;;;;;23.84;19.20;100385.50;4256322;33;34019;-93